sensor_id;sensor_type;location;lat;lon;timestamp;temperature;humidity
22984;DHT22;11658;48.908;9.140;2023-08-07T04:02:48;11.90;99.90
22984;DHT22;11658;48.908;9.140;2023-08-07T04:05:14;12.00;99.90
22984;DHT22;11658;48.908;9.140;2023-08-07T04:07:39;11.90;99.90
22984;DHT22;11658;48.908;9.140;2023-08-07T04:10:05;12.00;99.90
22984;DHT22;11658;48.908;9.140;2023-08-07T04:12:31;11.90;99.90
22984;DHT22;11658;48.908;9.140;2023-08-07T04:14:56;11.90;99.90
22984;DHT22;11658;48.908;9.140;2023-08-07T04:17:22;11.90;99.90
22984;DHT22;11658;48.908;9.140;2023-08-07T04:19:48;11.90;99.90
22984;DHT22;11658;48.908;9.140;2023-08-07T04:22:13;11.90;99.90
22984;DHT22;11658;48.908;9.140;2023-08-07T04:24:39;12.00;99.90
22984;DHT22;11658;48.908;9.140;2023-08-07T04:27:04;11.90;99.90
22984;DHT22;11658;48.908;9.140;2023-08-07T04:29:30;11.90;99.90
22984;DHT22;11658;48.908;9.140;2023-08-07T04:31:56;11.90;99.90
22984;DHT22;11658;48.908;9.140;2023-08-07T04:34:21;12.00;99.90
22984;DHT22;11658;48.908;9.140;2023-08-07T04:36:47;12.00;99.90
22984;DHT22;11658;48.908;9.140;2023-08-07T04:39:12;12.00;99.90
22984;DHT22;11658;48.908;9.140;2023-08-07T04:41:39;12.10;99.90
22984;DHT22;11658;48.908;9.140;2023-08-07T04:44:04;12.10;99.90
22984;DHT22;11658;48.908;9.140;2023-08-07T04:46:30;12.10;99.90
22984;DHT22;11658;48.908;9.140;2023-08-07T04:48:56;12.20;99.90
22984;DHT22;11658;48.908;9.140;2023-08-07T04:51:21;12.10;99.90
22984;DHT22;11658;48.908;9.140;2023-08-07T04:53:48;12.10;99.90
22984;DHT22;11658;48.908;9.140;2023-08-07T04:56:16;12.10;99.90
22984;DHT22;11658;48.908;9.140;2023-08-07T04:58:42;12.30;99.90
22984;DHT22;11658;48.908;9.140;2023-08-07T05:01:07;12.10;99.90
22984;DHT22;11658;48.908;9.140;2023-08-07T05:03:34;12.10;99.90
22984;DHT22;11658;48.908;9.140;2023-08-07T05:06:01;12.10;99.90
22984;DHT22;11658;48.908;9.140;2023-08-07T05:08:26;12.20;99.90
22984;DHT22;11658;48.908;9.140;2023-08-07T05:10:52;12.20;99.90
22984;DHT22;11658;48.908;9.140;2023-08-07T05:13:18;12.20;99.90
22984;DHT22;11658;48.908;9.140;2023-08-07T05:15:43;12.20;99.90
22984;DHT22;11658;48.908;9.140;2023-08-07T05:18:12;12.20;99.90
22984;DHT22;11658;48.908;9.140;2023-08-07T05:20:37;12.20;99.90
22984;DHT22;11658;48.908;9.140;2023-08-07T05:23:03;12.20;99.90
22984;DHT22;11658;48.908;9.140;2023-08-07T05:25:28;12.20;99.90
22984;DHT22;11658;48.908;9.140;2023-08-07T05:27:54;12.20;99.90
22984;DHT22;11658;48.908;9.140;2023-08-07T05:30:19;12.20;99.90
22984;DHT22;11658;48.908;9.140;2023-08-07T05:32:45;12.20;99.90
22984;DHT22;11658;48.908;9.140;2023-08-07T05:35:11;12.20;99.90
22984;DHT22;11658;48.908;9.140;2023-08-07T05:37:36;12.30;99.90
22984;DHT22;11658;48.908;9.140;2023-08-07T05:40:03;12.40;99.90
22984;DHT22;11658;48.908;9.140;2023-08-07T05:42:28;12.40;99.90
22984;DHT22;11658;48.908;9.140;2023-08-07T05:44:54;12.50;99.90
22984;DHT22;11658;48.908;9.140;2023-08-07T05:47:20;12.60;99.90
22984;DHT22;11658;48.908;9.140;2023-08-07T05:49:45;12.60;99.90
22984;DHT22;11658;48.908;9.140;2023-08-07T05:52:11;12.70;99.90
22984;DHT22;11658;48.908;9.140;2023-08-07T05:54:36;12.70;99.90
22984;DHT22;11658;48.908;9.140;2023-08-07T05:57:02;12.90;99.90
22984;DHT22;11658;48.908;9.140;2023-08-07T05:59:28;12.90;99.90
22984;DHT22;11658;48.908;9.140;2023-08-07T06:01:54;13.10;99.90
22984;DHT22;11658;48.908;9.140;2023-08-07T06:04:21;13.40;99.90
22984;DHT22;11658;48.908;9.140;2023-08-07T06:06:47;13.70;99.90
22984;DHT22;11658;48.908;9.140;2023-08-07T06:09:12;13.70;99.90
22984;DHT22;11658;48.908;9.140;2023-08-07T06:11:41;13.90;99.90
22984;DHT22;11658;48.908;9.140;2023-08-07T06:14:06;14.30;99.90
22984;DHT22;11658;48.908;9.140;2023-08-07T06:16:32;14.50;99.90
22984;DHT22;11658;48.908;9.140;2023-08-07T06:18:58;14.00;99.90
22984;DHT22;11658;48.908;9.140;2023-08-07T06:21:23;13.80;99.90
22984;DHT22;11658;48.908;9.140;2023-08-07T06:23:49;13.70;99.90
22984;DHT22;11658;48.908;9.140;2023-08-07T06:26:15;13.80;99.90
22984;DHT22;11658;48.908;9.140;2023-08-07T06:28:42;14.00;99.90
22984;DHT22;11658;48.908;9.140;2023-08-07T06:31:10;14.20;99.90
22984;DHT22;11658;48.908;9.140;2023-08-07T06:33:36;14.40;99.90
22984;DHT22;11658;48.908;9.140;2023-08-07T06:36:03;14.40;99.90
22984;DHT22;11658;48.908;9.140;2023-08-07T06:38:29;14.10;99.90
22984;DHT22;11658;48.908;9.140;2023-08-07T06:40:55;14.10;99.90
22984;DHT22;11658;48.908;9.140;2023-08-07T06:43:20;14.00;99.90
22984;DHT22;11658;48.908;9.140;2023-08-07T06:45:48;14.10;99.90
22984;DHT22;11658;48.908;9.140;2023-08-07T06:48:14;14.00;99.90
22984;DHT22;11658;48.908;9.140;2023-08-07T06:50:40;13.90;99.90
22984;DHT22;11658;48.908;9.140;2023-08-07T06:53:05;14.10;99.90
22984;DHT22;11658;48.908;9.140;2023-08-07T06:55:31;14.00;99.90
22984;DHT22;11658;48.908;9.140;2023-08-07T06:57:58;14.00;99.90
22984;DHT22;11658;48.908;9.140;2023-08-07T07:00:23;14.10;99.90
22984;DHT22;11658;48.908;9.140;2023-08-07T07:02:49;14.20;99.90
22984;DHT22;11658;48.908;9.140;2023-08-07T07:05:15;14.10;99.90
22984;DHT22;11658;48.908;9.140;2023-08-07T07:07:41;14.30;99.90
22984;DHT22;11658;48.908;9.140;2023-08-07T07:10:07;14.60;99.90
22984;DHT22;11658;48.908;9.140;2023-08-07T07:12:33;14.40;99.90
22984;DHT22;11658;48.908;9.140;2023-08-07T07:14:58;14.70;99.90
22984;DHT22;11658;48.908;9.140;2023-08-07T07:17:24;14.70;99.90
22984;DHT22;11658;48.908;9.140;2023-08-07T07:19:49;14.70;99.90
22984;DHT22;11658;48.908;9.140;2023-08-07T07:22:15;14.50;99.90
22984;DHT22;11658;48.908;9.140;2023-08-07T07:24:40;14.30;99.90
22984;DHT22;11658;48.908;9.140;2023-08-07T07:27:06;14.00;99.90
22984;DHT22;11658;48.908;9.140;2023-08-07T07:29:32;14.10;99.90
22984;DHT22;11658;48.908;9.140;2023-08-07T07:31:57;14.10;99.90
22984;DHT22;11658;48.908;9.140;2023-08-07T07:34:23;14.00;99.90
22984;DHT22;11658;48.908;9.140;2023-08-07T07:36:49;14.10;99.90
22984;DHT22;11658;48.908;9.140;2023-08-07T07:39:14;14.00;99.90
22984;DHT22;11658;48.908;9.140;2023-08-07T07:41:40;14.30;99.90
22984;DHT22;11658;48.908;9.140;2023-08-07T07:44:05;14.40;99.90
22984;DHT22;11658;48.908;9.140;2023-08-07T07:46:31;14.40;99.90
22984;DHT22;11658;48.908;9.140;2023-08-07T07:48:58;14.60;99.90
22984;DHT22;11658;48.908;9.140;2023-08-07T07:51:24;14.60;99.90
22984;DHT22;11658;48.908;9.140;2023-08-07T07:53:49;14.60;99.90
22984;DHT22;11658;48.908;9.140;2023-08-07T07:56:15;14.60;99.90
22984;DHT22;11658;48.908;9.140;2023-08-07T07:58:40;14.60;99.90
22984;DHT22;11658;48.908;9.140;2023-08-07T08:01:07;14.40;99.90
22984;DHT22;11658;48.908;9.140;2023-08-07T08:03:33;14.50;99.90
22984;DHT22;11658;48.908;9.140;2023-08-07T08:05:58;14.80;99.90
22984;DHT22;11658;48.908;9.140;2023-08-07T08:08:24;14.60;99.90
22984;DHT22;11658;48.908;9.140;2023-08-07T08:10:50;14.60;99.90
22984;DHT22;11658;48.908;9.140;2023-08-07T08:13:16;14.60;99.90
22984;DHT22;11658;48.908;9.140;2023-08-07T08:15:42;14.60;99.90
22984;DHT22;11658;48.908;9.140;2023-08-07T08:18:08;14.40;99.90
22984;DHT22;11658;48.908;9.140;2023-08-07T08:20:34;14.50;99.90
22984;DHT22;11658;48.908;9.140;2023-08-07T08:22:59;14.50;99.90
22984;DHT22;11658;48.908;9.140;2023-08-07T08:25:25;14.50;99.90
22984;DHT22;11658;48.908;9.140;2023-08-07T08:27:51;14.60;99.90
22984;DHT22;11658;48.908;9.140;2023-08-07T08:30:16;14.70;99.90
22984;DHT22;11658;48.908;9.140;2023-08-07T08:32:43;14.60;99.90
22984;DHT22;11658;48.908;9.140;2023-08-07T08:35:09;14.80;99.90
22984;DHT22;11658;48.908;9.140;2023-08-07T08:37:34;15.00;99.90
22984;DHT22;11658;48.908;9.140;2023-08-07T08:40:00;15.10;99.90
22984;DHT22;11658;48.908;9.140;2023-08-07T08:42:26;15.40;99.90
22984;DHT22;11658;48.908;9.140;2023-08-07T08:44:54;15.70;99.90
22984;DHT22;11658;48.908;9.140;2023-08-07T08:47:26;15.90;99.90
22984;DHT22;11658;48.908;9.140;2023-08-07T08:50:02;15.70;99.90
22984;DHT22;11658;48.908;9.140;2023-08-07T08:52:31;15.80;99.90
22984;DHT22;11658;48.908;9.140;2023-08-07T08:54:58;15.80;99.90
22984;DHT22;11658;48.908;9.140;2023-08-07T08:57:25;15.90;99.90
22984;DHT22;11658;48.908;9.140;2023-08-07T08:59:52;16.00;99.90
22984;DHT22;11658;48.908;9.140;2023-08-07T09:02:17;16.00;99.90
22984;DHT22;11658;48.908;9.140;2023-08-07T09:04:46;16.20;99.90
22984;DHT22;11658;48.908;9.140;2023-08-07T09:07:14;15.90;99.90
22984;DHT22;11658;48.908;9.140;2023-08-07T09:09:40;16.00;99.90
22984;DHT22;11658;48.908;9.140;2023-08-07T09:12:08;16.00;99.90
22984;DHT22;11658;48.908;9.140;2023-08-07T09:14:41;16.30;99.90
22984;DHT22;11658;48.908;9.140;2023-08-07T09:17:07;16.60;99.90
22984;DHT22;11658;48.908;9.140;2023-08-07T09:19:33;16.40;99.90
22984;DHT22;11658;48.908;9.140;2023-08-07T09:21:59;16.30;99.90
22984;DHT22;11658;48.908;9.140;2023-08-07T09:24:24;16.30;99.90
22984;DHT22;11658;48.908;9.140;2023-08-07T09:26:53;16.60;99.90
22984;DHT22;11658;48.908;9.140;2023-08-07T09:29:21;16.70;99.90
22984;DHT22;11658;48.908;9.140;2023-08-07T09:31:47;16.40;99.90
22984;DHT22;11658;48.908;9.140;2023-08-07T09:34:13;16.20;99.90
22984;DHT22;11658;48.908;9.140;2023-08-07T09:36:42;15.90;99.90
22984;DHT22;11658;48.908;9.140;2023-08-07T09:39:07;16.00;99.90
22984;DHT22;11658;48.908;9.140;2023-08-07T09:41:33;16.00;99.90
22984;DHT22;11658;48.908;9.140;2023-08-07T09:44:09;16.10;99.90
22984;DHT22;11658;48.908;9.140;2023-08-07T09:46:43;16.30;99.90
22984;DHT22;11658;48.908;9.140;2023-08-07T09:49:08;16.50;99.90
22984;DHT22;11658;48.908;9.140;2023-08-07T09:51:44;16.20;99.90
22984;DHT22;11658;48.908;9.140;2023-08-07T09:54:11;16.30;99.90
22984;DHT22;11658;48.908;9.140;2023-08-07T09:56:37;16.50;99.90
22984;DHT22;11658;48.908;9.140;2023-08-07T09:59:03;16.80;99.90
22984;DHT22;11658;48.908;9.140;2023-08-07T10:01:29;16.70;99.90
22984;DHT22;11658;48.908;9.140;2023-08-07T10:03:55;16.80;99.90
22984;DHT22;11658;48.908;9.140;2023-08-07T10:06:21;16.90;99.90
22984;DHT22;11658;48.908;9.140;2023-08-07T10:08:48;17.30;99.90
22984;DHT22;11658;48.908;9.140;2023-08-07T10:11:14;17.20;99.90
22984;DHT22;11658;48.908;9.140;2023-08-07T10:13:40;17.20;99.90
22984;DHT22;11658;48.908;9.140;2023-08-07T10:16:07;17.00;99.90
22984;DHT22;11658;48.908;9.140;2023-08-07T10:18:33;16.60;99.90
22984;DHT22;11658;48.908;9.140;2023-08-07T10:21:01;16.60;99.90
22984;DHT22;11658;48.908;9.140;2023-08-07T10:23:27;16.90;99.90
22984;DHT22;11658;48.908;9.140;2023-08-07T10:25:53;16.90;99.90
22984;DHT22;11658;48.908;9.140;2023-08-07T10:28:20;16.90;99.90
22984;DHT22;11658;48.908;9.140;2023-08-07T10:30:46;16.70;99.90
22984;DHT22;11658;48.908;9.140;2023-08-07T10:33:14;16.80;99.90
22984;DHT22;11658;48.908;9.140;2023-08-07T10:35:45;16.80;99.90
22984;DHT22;11658;48.908;9.140;2023-08-07T10:38:12;16.80;99.90
22984;DHT22;11658;48.908;9.140;2023-08-07T10:41:00;16.80;99.90
22984;DHT22;11658;48.908;9.140;2023-08-07T10:43:27;16.90;99.90
22984;DHT22;11658;48.908;9.140;2023-08-07T10:46:04;16.90;99.90
22984;DHT22;11658;48.908;9.140;2023-08-07T10:48:44;16.70;99.90
22984;DHT22;11658;48.908;9.140;2023-08-07T10:51:19;16.70;99.90
22984;DHT22;11658;48.908;9.140;2023-08-07T10:53:47;16.90;99.90
22984;DHT22;11658;48.908;9.140;2023-08-07T10:56:21;17.00;99.90
22984;DHT22;11658;48.908;9.140;2023-08-07T10:58:54;17.00;99.90
22984;DHT22;11658;48.908;9.140;2023-08-07T11:04:00;16.70;99.90
22984;DHT22;11658;48.908;9.140;2023-08-07T11:06:32;16.50;99.90
22984;DHT22;11658;48.908;9.140;2023-08-07T11:09:02;16.30;99.90
22984;DHT22;11658;48.908;9.140;2023-08-07T11:11:44;16.30;99.90
22984;DHT22;11658;48.908;9.140;2023-08-07T11:14:17;16.20;99.90
22984;DHT22;11658;48.908;9.140;2023-08-07T11:16:45;16.30;99.90
22984;DHT22;11658;48.908;9.140;2023-08-07T11:19:13;16.20;99.90
22984;DHT22;11658;48.908;9.140;2023-08-07T11:21:40;16.40;99.90
22984;DHT22;11658;48.908;9.140;2023-08-07T11:24:06;16.60;99.90
22984;DHT22;11658;48.908;9.140;2023-08-07T11:26:32;16.90;99.90
22984;DHT22;11658;48.908;9.140;2023-08-07T11:28:57;17.00;99.90
22984;DHT22;11658;48.908;9.140;2023-08-07T11:31:24;17.20;99.90
22984;DHT22;11658;48.908;9.140;2023-08-07T11:33:57;17.20;99.90
22984;DHT22;11658;48.908;9.140;2023-08-07T11:36:28;17.00;99.90
22984;DHT22;11658;48.908;9.140;2023-08-07T11:38:54;16.90;99.90
22984;DHT22;11658;48.908;9.140;2023-08-07T11:41:20;16.80;99.90
22984;DHT22;11658;48.908;9.140;2023-08-07T11:43:46;16.80;99.90
22984;DHT22;11658;48.908;9.140;2023-08-07T11:46:13;16.60;99.90
22984;DHT22;11658;48.908;9.140;2023-08-07T11:48:40;16.50;99.90
22984;DHT22;11658;48.908;9.140;2023-08-07T11:51:07;16.40;99.90
22984;DHT22;11658;48.908;9.140;2023-08-07T11:53:35;16.90;99.90
22984;DHT22;11658;48.908;9.140;2023-08-07T11:56:11;16.70;99.90
22984;DHT22;11658;48.908;9.140;2023-08-07T11:58:48;16.80;99.90
22984;DHT22;11658;48.908;9.140;2023-08-07T12:01:14;17.00;99.90
22984;DHT22;11658;48.908;9.140;2023-08-07T12:04:08;17.10;99.90
22984;DHT22;11658;48.908;9.140;2023-08-07T12:06:34;17.10;99.90
22984;DHT22;11658;48.908;9.140;2023-08-07T12:09:08;17.30;99.90
22984;DHT22;11658;48.908;9.140;2023-08-07T12:11:38;17.70;99.90
22984;DHT22;11658;48.908;9.140;2023-08-07T12:14:04;17.80;99.90
22984;DHT22;11658;48.908;9.140;2023-08-07T12:16:34;17.90;99.90
22984;DHT22;11658;48.908;9.140;2023-08-07T12:19:00;18.00;99.90
22984;DHT22;11658;48.908;9.140;2023-08-07T12:21:26;18.00;99.90
22984;DHT22;11658;48.908;9.140;2023-08-07T12:23:56;18.40;99.90
22984;DHT22;11658;48.908;9.140;2023-08-07T12:26:21;18.20;99.90
22984;DHT22;11658;48.908;9.140;2023-08-07T12:28:47;17.90;99.90
22984;DHT22;11658;48.908;9.140;2023-08-07T12:31:13;17.80;99.90
22984;DHT22;11658;48.908;9.140;2023-08-07T12:33:39;18.20;99.90
22984;DHT22;11658;48.908;9.140;2023-08-07T12:36:04;18.30;99.90
22984;DHT22;11658;48.908;9.140;2023-08-07T12:38:30;18.50;99.90
22984;DHT22;11658;48.908;9.140;2023-08-07T12:40:56;18.70;99.90
22984;DHT22;11658;48.908;9.140;2023-08-07T12:43:23;18.60;99.90
22984;DHT22;11658;48.908;9.140;2023-08-07T12:45:48;18.80;99.90
22984;DHT22;11658;48.908;9.140;2023-08-07T12:48:14;19.00;99.90
22984;DHT22;11658;48.908;9.140;2023-08-07T12:50:40;19.10;99.90
22984;DHT22;11658;48.908;9.140;2023-08-07T12:53:08;19.00;99.90
22984;DHT22;11658;48.908;9.140;2023-08-07T12:55:34;18.40;99.90
22984;DHT22;11658;48.908;9.140;2023-08-07T12:57:59;18.10;99.90
22984;DHT22;11658;48.908;9.140;2023-08-07T13:00:25;18.00;99.90
22984;DHT22;11658;48.908;9.140;2023-08-07T13:02:52;17.80;99.90
22984;DHT22;11658;48.908;9.140;2023-08-07T13:05:19;17.90;99.90
22984;DHT22;11658;48.908;9.140;2023-08-07T13:07:46;18.20;99.90
22984;DHT22;11658;48.908;9.140;2023-08-07T13:10:14;18.30;99.90
22984;DHT22;11658;48.908;9.140;2023-08-07T13:12:41;17.90;99.90
22984;DHT22;11658;48.908;9.140;2023-08-07T13:15:09;18.10;99.90
22984;DHT22;11658;48.908;9.140;2023-08-07T13:17:36;18.00;99.90
22984;DHT22;11658;48.908;9.140;2023-08-07T13:20:03;17.90;99.90
22984;DHT22;11658;48.908;9.140;2023-08-07T13:22:34;17.90;99.90
22984;DHT22;11658;48.908;9.140;2023-08-07T13:25:00;18.20;99.90
22984;DHT22;11658;48.908;9.140;2023-08-07T13:27:26;18.70;99.90
22984;DHT22;11658;48.908;9.140;2023-08-07T13:29:52;18.90;99.90
22984;DHT22;11658;48.908;9.140;2023-08-07T13:32:18;19.10;99.90
22984;DHT22;11658;48.908;9.140;2023-08-07T13:34:45;19.20;99.90
22984;DHT22;11658;48.908;9.140;2023-08-07T13:37:11;19.30;99.90
22984;DHT22;11658;48.908;9.140;2023-08-07T13:39:36;19.30;99.90
22984;DHT22;11658;48.908;9.140;2023-08-07T13:42:02;19.40;99.90
22984;DHT22;11658;48.908;9.140;2023-08-07T13:44:28;19.40;99.90
22984;DHT22;11658;48.908;9.140;2023-08-07T13:46:54;19.40;99.90
22984;DHT22;11658;48.908;9.140;2023-08-07T13:49:21;18.90;99.90
22984;DHT22;11658;48.908;9.140;2023-08-07T13:51:47;18.40;99.90
22984;DHT22;11658;48.908;9.140;2023-08-07T13:54:13;18.10;99.90
22984;DHT22;11658;48.908;9.140;2023-08-07T13:56:38;18.20;99.90
22984;DHT22;11658;48.908;9.140;2023-08-07T13:59:04;18.30;99.90
22984;DHT22;11658;48.908;9.140;2023-08-07T14:01:30;18.30;99.90
22984;DHT22;11658;48.908;9.140;2023-08-07T14:03:55;18.30;99.90
22984;DHT22;11658;48.908;9.140;2023-08-07T14:06:21;18.20;99.90
22984;DHT22;11658;48.908;9.140;2023-08-07T14:08:47;18.30;99.90
22984;DHT22;11658;48.908;9.140;2023-08-07T14:11:13;18.60;99.90
22984;DHT22;11658;48.908;9.140;2023-08-07T14:13:41;18.80;99.90
22984;DHT22;11658;48.908;9.140;2023-08-07T14:16:07;18.80;99.90
22984;DHT22;11658;48.908;9.140;2023-08-07T14:18:33;18.90;99.90
22984;DHT22;11658;48.908;9.140;2023-08-07T14:20:58;19.10;99.90
22984;DHT22;11658;48.908;9.140;2023-08-07T14:23:24;19.00;99.90
22984;DHT22;11658;48.908;9.140;2023-08-07T14:25:50;18.70;99.90
22984;DHT22;11658;48.908;9.140;2023-08-07T14:28:18;18.60;99.90
22984;DHT22;11658;48.908;9.140;2023-08-07T14:30:44;18.60;99.90
22984;DHT22;11658;48.908;9.140;2023-08-07T14:33:10;18.60;99.90
22984;DHT22;11658;48.908;9.140;2023-08-07T14:35:36;18.90;99.90
22984;DHT22;11658;48.908;9.140;2023-08-07T14:38:01;19.10;99.90
22984;DHT22;11658;48.908;9.140;2023-08-07T14:40:27;19.30;99.90
22984;DHT22;11658;48.908;9.140;2023-08-07T14:42:54;19.40;99.90
22984;DHT22;11658;48.908;9.140;2023-08-07T14:45:20;19.30;99.90
22984;DHT22;11658;48.908;9.140;2023-08-07T14:47:46;19.00;99.90
22984;DHT22;11658;48.908;9.140;2023-08-07T14:50:12;18.90;99.90
22984;DHT22;11658;48.908;9.140;2023-08-07T14:52:37;18.80;99.90
22984;DHT22;11658;48.908;9.140;2023-08-07T14:55:03;18.50;99.90
22984;DHT22;11658;48.908;9.140;2023-08-07T14:57:29;18.30;99.90
22984;DHT22;11658;48.908;9.140;2023-08-07T14:59:55;18.10;99.90
22984;DHT22;11658;48.908;9.140;2023-08-07T15:02:20;17.90;99.90
22984;DHT22;11658;48.908;9.140;2023-08-07T15:04:46;17.40;99.90
22984;DHT22;11658;48.908;9.140;2023-08-07T15:07:12;16.90;99.90
22984;DHT22;11658;48.908;9.140;2023-08-07T15:09:37;16.40;99.90
22984;DHT22;11658;48.908;9.140;2023-08-07T15:12:03;16.20;99.90
22984;DHT22;11658;48.908;9.140;2023-08-07T15:14:32;16.20;99.90
22984;DHT22;11658;48.908;9.140;2023-08-07T15:16:57;16.40;99.90
22984;DHT22;11658;48.908;9.140;2023-08-07T15:19:23;16.60;99.90
22984;DHT22;11658;48.908;9.140;2023-08-07T15:21:50;17.00;99.90
22984;DHT22;11658;48.908;9.140;2023-08-07T15:24:16;17.30;99.90
22984;DHT22;11658;48.908;9.140;2023-08-07T15:26:41;17.60;99.90
22984;DHT22;11658;48.908;9.140;2023-08-07T15:29:07;17.70;99.90
22984;DHT22;11658;48.908;9.140;2023-08-07T15:31:33;17.90;99.90
22984;DHT22;11658;48.908;9.140;2023-08-07T15:33:58;18.10;99.90
22984;DHT22;11658;48.908;9.140;2023-08-07T15:36:24;18.20;99.90
22984;DHT22;11658;48.908;9.140;2023-08-07T15:38:49;18.30;99.90
22984;DHT22;11658;48.908;9.140;2023-08-07T15:41:16;18.10;99.90
22984;DHT22;11658;48.908;9.140;2023-08-07T15:43:42;18.00;99.90
22984;DHT22;11658;48.908;9.140;2023-08-07T15:46:07;18.10;99.90
22984;DHT22;11658;48.908;9.140;2023-08-07T15:48:33;18.10;99.90
22984;DHT22;11658;48.908;9.140;2023-08-07T15:50:58;18.00;99.90
22984;DHT22;11658;48.908;9.140;2023-08-07T15:53:24;18.20;99.90
22984;DHT22;11658;48.908;9.140;2023-08-07T15:55:49;18.30;99.90
22984;DHT22;11658;48.908;9.140;2023-08-07T15:58:15;18.50;99.90
22984;DHT22;11658;48.908;9.140;2023-08-07T16:00:43;18.60;99.90
22984;DHT22;11658;48.908;9.140;2023-08-07T16:03:09;18.90;99.90
22984;DHT22;11658;48.908;9.140;2023-08-07T16:05:37;19.10;99.90
22984;DHT22;11658;48.908;9.140;2023-08-07T16:08:04;19.20;99.90
22984;DHT22;11658;48.908;9.140;2023-08-07T16:10:31;19.00;99.90
22984;DHT22;11658;48.908;9.140;2023-08-07T16:12:58;19.10;99.90
22984;DHT22;11658;48.908;9.140;2023-08-07T16:15:24;19.20;99.90
22984;DHT22;11658;48.908;9.140;2023-08-07T16:17:51;19.30;99.90
22984;DHT22;11658;48.908;9.140;2023-08-07T16:20:17;19.40;99.90
22984;DHT22;11658;48.908;9.140;2023-08-07T16:22:43;19.50;99.90
22984;DHT22;11658;48.908;9.140;2023-08-07T16:25:09;19.60;99.90
22984;DHT22;11658;48.908;9.140;2023-08-07T16:27:34;19.80;99.90
22984;DHT22;11658;48.908;9.140;2023-08-07T16:30:02;20.40;99.90
22984;DHT22;11658;48.908;9.140;2023-08-07T16:32:38;21.20;99.90
22984;DHT22;11658;48.908;9.140;2023-08-07T16:35:05;21.20;99.90
22984;DHT22;11658;48.908;9.140;2023-08-07T16:37:32;21.70;99.90
22984;DHT22;11658;48.908;9.140;2023-08-07T16:39:58;22.30;99.90
22984;DHT22;11658;48.908;9.140;2023-08-07T16:42:24;22.30;99.90
22984;DHT22;11658;48.908;9.140;2023-08-07T16:44:49;22.20;99.90
22984;DHT22;11658;48.908;9.140;2023-08-07T16:47:16;22.40;99.90
22984;DHT22;11658;48.908;9.140;2023-08-07T16:49:41;22.40;99.90
22984;DHT22;11658;48.908;9.140;2023-08-07T16:52:07;22.20;99.90
22984;DHT22;11658;48.908;9.140;2023-08-07T16:54:34;22.40;99.90
22984;DHT22;11658;48.908;9.140;2023-08-07T16:56:59;22.30;99.90
22984;DHT22;11658;48.908;9.140;2023-08-07T16:59:25;22.80;99.90
22984;DHT22;11658;48.908;9.140;2023-08-07T17:01:51;22.70;99.90
22984;DHT22;11658;48.908;9.140;2023-08-07T17:04:16;22.40;99.90
22984;DHT22;11658;48.908;9.140;2023-08-07T17:06:42;21.60;99.90
22984;DHT22;11658;48.908;9.140;2023-08-07T17:09:08;21.40;99.90
22984;DHT22;11658;48.908;9.140;2023-08-07T17:11:34;21.10;99.90
22984;DHT22;11658;48.908;9.140;2023-08-07T17:14:00;21.20;99.90
22984;DHT22;11658;48.908;9.140;2023-08-07T17:16:26;21.10;99.90
22984;DHT22;11658;48.908;9.140;2023-08-07T17:18:52;20.80;99.90
22984;DHT22;11658;48.908;9.140;2023-08-07T17:21:17;21.00;99.90
22984;DHT22;11658;48.908;9.140;2023-08-07T17:23:43;21.60;99.90
22984;DHT22;11658;48.908;9.140;2023-08-07T17:26:09;22.10;99.90
22984;DHT22;11658;48.908;9.140;2023-08-07T17:28:35;22.30;99.90
22984;DHT22;11658;48.908;9.140;2023-08-07T17:31:01;22.60;99.90
22984;DHT22;11658;48.908;9.140;2023-08-07T17:33:28;22.70;99.90
22984;DHT22;11658;48.908;9.140;2023-08-07T17:35:54;22.30;99.90
22984;DHT22;11658;48.908;9.140;2023-08-07T17:38:19;22.00;99.90
22984;DHT22;11658;48.908;9.140;2023-08-07T17:40:46;21.20;99.90
22984;DHT22;11658;48.908;9.140;2023-08-07T17:43:13;21.20;99.90
22984;DHT22;11658;48.908;9.140;2023-08-07T17:45:39;21.20;99.90
22984;DHT22;11658;48.908;9.140;2023-08-07T17:48:05;21.50;99.90
22984;DHT22;11658;48.908;9.140;2023-08-07T17:50:31;21.60;99.90
22984;DHT22;11658;48.908;9.140;2023-08-07T17:52:56;20.70;99.90
22984;DHT22;11658;48.908;9.140;2023-08-07T17:55:22;20.10;99.90
22984;DHT22;11658;48.908;9.140;2023-08-07T17:57:49;19.50;99.90
22984;DHT22;11658;48.908;9.140;2023-08-07T18:00:15;18.90;99.90
22984;DHT22;11658;48.908;9.140;2023-08-07T18:02:41;18.60;99.90
22984;DHT22;11658;48.908;9.140;2023-08-07T18:05:07;18.30;99.90
22984;DHT22;11658;48.908;9.140;2023-08-07T18:07:33;18.20;99.90
22984;DHT22;11658;48.908;9.140;2023-08-07T18:09:59;18.00;99.90
22984;DHT22;11658;48.908;9.140;2023-08-07T18:12:25;17.80;99.90
22984;DHT22;11658;48.908;9.140;2023-08-07T18:14:50;17.70;99.90
22984;DHT22;11658;48.908;9.140;2023-08-07T18:17:16;17.70;99.90
22984;DHT22;11658;48.908;9.140;2023-08-07T18:19:42;17.60;99.90
22984;DHT22;11658;48.908;9.140;2023-08-07T18:22:07;17.50;99.90
22984;DHT22;11658;48.908;9.140;2023-08-07T18:24:33;17.40;99.90
22984;DHT22;11658;48.908;9.140;2023-08-07T18:26:58;17.30;99.90
22984;DHT22;11658;48.908;9.140;2023-08-07T18:29:24;17.20;99.90
22984;DHT22;11658;48.908;9.140;2023-08-07T18:31:49;17.10;99.90
22984;DHT22;11658;48.908;9.140;2023-08-07T18:34:15;17.00;99.90
22984;DHT22;11658;48.908;9.140;2023-08-07T18:36:42;16.90;99.90
22984;DHT22;11658;48.908;9.140;2023-08-07T18:39:08;16.80;99.90
22984;DHT22;11658;48.908;9.140;2023-08-07T18:41:34;16.70;99.90
22984;DHT22;11658;48.908;9.140;2023-08-07T18:44:01;16.60;99.90
22984;DHT22;11658;48.908;9.140;2023-08-07T18:46:26;16.50;99.90
22984;DHT22;11658;48.908;9.140;2023-08-07T18:48:52;16.30;99.90
22984;DHT22;11658;48.908;9.140;2023-08-07T18:51:18;16.20;99.90
22984;DHT22;11658;48.908;9.140;2023-08-07T18:53:43;16.10;99.90
22984;DHT22;11658;48.908;9.140;2023-08-07T18:56:09;16.00;99.90
22984;DHT22;11658;48.908;9.140;2023-08-07T18:58:34;15.90;99.90
22984;DHT22;11658;48.908;9.140;2023-08-07T19:01:00;15.80;99.90
22984;DHT22;11658;48.908;9.140;2023-08-07T19:03:26;15.70;99.90
22984;DHT22;11658;48.908;9.140;2023-08-07T19:05:51;15.70;99.90
22984;DHT22;11658;48.908;9.140;2023-08-07T19:08:17;15.60;99.90
22984;DHT22;11658;48.908;9.140;2023-08-07T19:10:44;15.60;99.90
22984;DHT22;11658;48.908;9.140;2023-08-07T19:13:11;15.50;99.90
22984;DHT22;11658;48.908;9.140;2023-08-07T19:15:36;15.50;99.90
22984;DHT22;11658;48.908;9.140;2023-08-07T19:18:02;15.40;99.90
22984;DHT22;11658;48.908;9.140;2023-08-07T19:20:29;15.40;99.90
22984;DHT22;11658;48.908;9.140;2023-08-07T19:22:55;15.30;99.90
22984;DHT22;11658;48.908;9.140;2023-08-07T19:25:21;15.20;99.90
22984;DHT22;11658;48.908;9.140;2023-08-07T19:27:47;15.10;99.90
22984;DHT22;11658;48.908;9.140;2023-08-07T19:30:15;15.00;99.90